createdAt,value
2022-12-01T00:00:35.412Z,50.69
2022-12-01T00:01:39.844Z,50.72
2022-12-01T00:02:44.574Z,50.73
2022-12-01T00:03:48.932Z,50.75
2022-12-01T00:04:53.205Z,50.78
2022-12-01T00:05:57.444Z,50.82
2022-12-01T00:07:01.622Z,50.76
2022-12-01T00:08:06.128Z,50.84
2022-12-01T00:09:12.207Z,50.92
2022-12-01T00:10:18.273Z,50.85
2022-12-01T00:11:22.525Z,50.92
2022-12-01T00:12:26.700Z,51
2022-12-01T00:13:30.918Z,50.9
2022-12-01T00:14:35.178Z,50.95
2022-12-01T00:15:39.441Z,50.95
2022-12-01T00:16:43.882Z,50.92
2022-12-01T00:17:48.156Z,51
2022-12-01T00:18:52.266Z,50.94
2022-12-01T00:19:56.468Z,50.97
2022-12-01T00:21:00.654Z,51.01
2022-12-01T00:22:04.868Z,50.96
2022-12-01T00:23:09.067Z,50.98
2022-12-01T00:24:13.266Z,50.96
2022-12-01T00:25:17.628Z,50.93
2022-12-01T00:26:21.861Z,50.91
2022-12-01T00:27:26.103Z,50.9
2022-12-01T00:28:30.357Z,50.95
2022-12-01T00:29:34.556Z,50.98
2022-12-01T00:30:38.722Z,50.89
2022-12-01T00:31:43.202Z,50.91
2022-12-01T00:32:47.490Z,50.92
2022-12-01T00:33:51.669Z,50.9
2022-12-01T00:34:55.916Z,50.95
2022-12-01T00:36:00.302Z,50.92
2022-12-01T00:37:04.434Z,50.89
2022-12-01T00:38:08.533Z,50.92
2022-12-01T00:39:12.736Z,50.92
2022-12-01T00:40:16.881Z,50.92
2022-12-01T00:41:21.127Z,50.91
2022-12-01T00:42:25.349Z,50.92
2022-12-01T00:43:29.499Z,50.89
2022-12-01T00:44:33.694Z,50.92
2022-12-01T00:45:38.166Z,50.91
2022-12-01T00:46:42.583Z,50.89
2022-12-01T00:47:46.787Z,50.88
2022-12-01T00:48:50.991Z,50.87
2022-12-01T00:49:55.202Z,50.87
2022-12-01T00:50:59.399Z,50.94
2022-12-01T00:52:03.627Z,50.89
2022-12-01T00:53:07.888Z,50.92
2022-12-01T00:54:12.123Z,50.88
2022-12-01T00:55:16.393Z,50.89
2022-12-01T00:56:20.651Z,50.86
2022-12-01T00:57:24.929Z,50.87
2022-12-01T00:58:29.094Z,50.86
2022-12-01T00:59:33.356Z,50.91
2022-12-01T01:00:37.741Z,50.9
2022-12-01T01:01:42.225Z,50.86
2022-12-01T01:02:46.741Z,50.87
2022-12-01T01:03:50.999Z,50.86
2022-12-01T01:04:55.204Z,50.87
2022-12-01T01:05:59.373Z,50.94
2022-12-01T01:07:03.650Z,50.89
2022-12-01T01:08:08.134Z,50.72
2022-12-01T01:09:12.427Z,50.73
2022-12-01T01:10:16.612Z,50.76
2022-12-01T01:11:20.798Z,50.87
2022-12-01T01:12:25.055Z,50.8
2022-12-01T01:13:29.267Z,50.75
2022-12-01T01:14:33.486Z,50.66
2022-12-01T01:15:37.734Z,50.54
2022-12-01T01:16:42.179Z,50.4
2022-12-01T01:17:46.382Z,50.4
2022-12-01T01:18:50.560Z,50.37
2022-12-01T01:19:54.761Z,50.21
2022-12-01T01:20:59.067Z,50.15
2022-12-01T01:22:03.220Z,50.06
2022-12-01T01:23:07.564Z,50
2022-12-01T01:24:11.790Z,49.92
2022-12-01T01:25:15.989Z,49.85
2022-12-01T01:26:20.234Z,49.82
2022-12-01T01:27:24.461Z,49.81
2022-12-01T01:28:28.676Z,49.66
2022-12-01T01:29:32.876Z,49.6
2022-12-01T01:30:37.299Z,49.61
2022-12-01T01:31:41.459Z,49.59
2022-12-01T01:32:45.681Z,49.5
2022-12-01T01:33:49.975Z,49.46
2022-12-01T01:34:54.162Z,49.34
2022-12-01T01:35:58.389Z,49.31
2022-12-01T01:37:02.555Z,49.26
2022-12-01T01:38:06.763Z,49.26
2022-12-01T01:39:10.993Z,49.25
2022-12-01T01:40:15.162Z,49.25
2022-12-01T01:41:19.373Z,49.26
2022-12-01T01:42:23.592Z,49.27
2022-12-01T01:43:27.820Z,49.34
2022-12-01T01:44:32.011Z,49.39
2022-12-01T01:45:36.473Z,49.45
2022-12-01T01:46:40.646Z,49.37
2022-12-01T01:47:44.786Z,49.43
2022-12-01T01:48:48.894Z,49.43
2022-12-01T01:49:53.370Z,49.51
2022-12-01T01:50:57.652Z,49.52
2022-12-01T01:52:01.817Z,49.53
2022-12-01T01:53:06.067Z,49.6
2022-12-01T01:54:10.368Z,49.61
2022-12-01T01:55:14.565Z,49.68
2022-12-01T01:56:18.812Z,49.69
2022-12-01T01:57:23.089Z,49.73
2022-12-01T01:58:27.372Z,49.67
2022-12-01T01:59:31.663Z,49.63
2022-12-01T02:00:35.860Z,49.64
2022-12-01T02:01:40.451Z,49.58
2022-12-01T02:02:45.080Z,49.52
2022-12-01T02:03:49.331Z,49.43
2022-12-01T02:04:53.639Z,49.4
2022-12-01T02:06:05.988Z,49.38
2022-12-01T02:07:10.191Z,49.3
2022-12-01T02:08:14.572Z,49.31
2022-12-01T02:09:18.766Z,49.27
2022-12-01T02:10:23.006Z,49.3
2022-12-01T02:11:27.160Z,49.29
2022-12-01T02:12:31.364Z,49.31
2022-12-01T02:13:35.462Z,49.28
2022-12-01T02:14:39.566Z,49.24
2022-12-01T02:15:43.670Z,49.31
2022-12-01T02:16:48.031Z,49.41
2022-12-01T02:17:52.182Z,49.52
2022-12-01T02:18:56.349Z,49.56
2022-12-01T02:20:00.461Z,49.6
2022-12-01T02:21:04.570Z,49.64
2022-12-01T02:22:08.688Z,49.68
2022-12-01T02:23:12.810Z,49.69
2022-12-01T02:24:16.898Z,49.71
2022-12-01T02:25:21.019Z,49.68
2022-12-01T02:26:25.113Z,49.72
2022-12-01T02:27:29.223Z,49.75
2022-12-01T02:28:33.328Z,49.71
2022-12-01T02:29:37.443Z,49.65
2022-12-01T02:30:41.762Z,49.63
2022-12-01T02:31:45.864Z,49.58
2022-12-01T02:32:49.973Z,49.55
2022-12-01T02:33:54.072Z,49.48
2022-12-01T02:34:58.182Z,49.42
2022-12-01T02:36:02.416Z,49.37
2022-12-01T02:37:06.551Z,49.44
2022-12-01T02:38:10.673Z,49.47
2022-12-01T02:39:14.790Z,49.51
2022-12-01T02:40:18.894Z,49.53
2022-12-01T02:41:22.988Z,49.61
2022-12-01T02:42:27.072Z,49.68
2022-12-01T02:43:31.182Z,49.71
2022-12-01T02:44:35.285Z,49.71
2022-12-01T02:45:39.461Z,49.77
2022-12-01T02:46:43.621Z,49.77
2022-12-01T02:47:47.723Z,49.83
2022-12-01T02:48:51.883Z,49.87
2022-12-01T02:49:55.969Z,49.95
2022-12-01T02:51:00.287Z,49.96
2022-12-01T02:52:04.389Z,49.99
2022-12-01T02:53:08.495Z,49.93
2022-12-01T02:54:12.618Z,49.88
2022-12-01T02:55:16.732Z,49.92
2022-12-01T02:56:20.827Z,49.88
2022-12-01T02:57:24.945Z,49.83
2022-12-01T02:58:29.048Z,50.23
2022-12-01T02:59:33.155Z,50.04
2022-12-01T03:00:37.270Z,50.15
2022-12-01T03:01:41.539Z,50.19
2022-12-01T03:02:45.959Z,50.29
2022-12-01T03:03:50.177Z,50.36
2022-12-01T03:04:54.290Z,50.37
2022-12-01T03:05:58.402Z,50.32
2022-12-01T03:07:02.485Z,50.29
2022-12-01T03:08:06.910Z,50.29
2022-12-01T03:09:11.070Z,50.32
2022-12-01T03:10:15.185Z,50.28
2022-12-01T03:11:19.289Z,50.22
2022-12-01T03:12:23.386Z,50.18
2022-12-01T03:13:27.471Z,50.18
2022-12-01T03:14:31.590Z,50.15
2022-12-01T03:15:36.055Z,50.01
2022-12-01T03:16:40.229Z,50.04
2022-12-01T03:17:44.329Z,50.02
2022-12-01T03:18:48.437Z,49.97
2022-12-01T03:19:53.070Z,49.93
2022-12-01T03:20:57.196Z,49.94
2022-12-01T03:22:01.296Z,49.93
2022-12-01T03:23:05.376Z,49.98
2022-12-01T03:24:09.469Z,49.99
2022-12-01T03:25:13.582Z,50
2022-12-01T03:26:17.685Z,50.06
2022-12-01T03:27:21.778Z,50.02
2022-12-01T03:28:25.882Z,50.13
2022-12-01T03:29:29.990Z,50.2
2022-12-01T03:30:34.120Z,50.22
2022-12-01T03:31:38.435Z,50.26
2022-12-01T03:32:42.572Z,50.31
2022-12-01T03:33:46.668Z,50.44
2022-12-01T03:34:50.795Z,50.46
2022-12-01T03:35:54.913Z,50.46
2022-12-01T03:36:59.016Z,50.42
2022-12-01T03:38:03.131Z,50.33
2022-12-01T03:39:07.223Z,50.29
2022-12-01T03:40:11.315Z,50.24
2022-12-01T03:41:15.411Z,50.14
2022-12-01T03:42:19.503Z,50.14
2022-12-01T03:43:23.616Z,50.07
2022-12-01T03:44:27.804Z,50.09
2022-12-01T03:45:31.898Z,49.97
2022-12-01T03:46:36.259Z,49.93
2022-12-01T03:47:40.478Z,49.87
2022-12-01T03:48:44.600Z,49.91
2022-12-01T03:49:49.928Z,49.85
2022-12-01T03:50:54.197Z,49.87
2022-12-01T03:51:58.297Z,49.79
2022-12-01T03:53:02.401Z,49.74
2022-12-01T03:54:06.508Z,49.64
2022-12-01T03:55:10.623Z,49.58
2022-12-01T03:56:14.709Z,49.49
2022-12-01T03:57:18.839Z,49.46
2022-12-01T03:58:22.913Z,49.4
2022-12-01T03:59:27.013Z,49.36
2022-12-01T04:00:31.107Z,49.37
2022-12-01T04:01:35.419Z,49.34
2022-12-01T04:02:39.847Z,49.23
2022-12-01T04:03:43.942Z,49.23
2022-12-01T04:04:48.036Z,49.13
2022-12-01T04:05:52.131Z,49.1
2022-12-01T04:06:56.256Z,49.07
2022-12-01T04:08:00.702Z,49.04
2022-12-01T04:09:04.918Z,49.05
2022-12-01T04:10:09.032Z,49.04
2022-12-01T04:11:13.122Z,49.14
2022-12-01T04:12:17.245Z,49.1
2022-12-01T04:13:21.342Z,49.16
2022-12-01T04:14:25.450Z,49.24
2022-12-01T04:15:29.552Z,49.24
2022-12-01T04:16:33.865Z,49.35
2022-12-01T04:17:37.992Z,49.42
2022-12-01T04:18:42.081Z,49.41
2022-12-01T04:19:46.476Z,49.49
2022-12-01T04:20:50.718Z,49.52
2022-12-01T04:21:54.813Z,49.65
2022-12-01T04:22:58.933Z,49.65
2022-12-01T04:24:03.156Z,49.68
2022-12-01T04:25:07.279Z,49.68
2022-12-01T04:26:17.438Z,49.73
2022-12-01T04:27:21.534Z,49.73
2022-12-01T04:28:25.678Z,49.79
2022-12-01T04:29:29.765Z,49.85
2022-12-01T04:30:33.861Z,49.88
2022-12-01T04:31:38.356Z,49.92
2022-12-01T04:32:42.504Z,49.95
2022-12-01T04:33:46.599Z,49.96
2022-12-01T04:34:50.684Z,49.97
2022-12-01T04:35:54.781Z,50.01
2022-12-01T04:36:58.878Z,50.05
2022-12-01T04:38:02.993Z,50.06
2022-12-01T04:39:07.114Z,50.09
2022-12-01T04:40:11.221Z,50.13
2022-12-01T04:41:15.307Z,50.14
2022-12-01T04:42:19.406Z,50.19
2022-12-01T04:43:23.520Z,50.21
2022-12-01T04:44:36.150Z,50.28
2022-12-01T04:45:40.252Z,50.28
2022-12-01T04:46:44.568Z,50.32
2022-12-01T04:47:48.698Z,50.38
2022-12-01T04:48:52.809Z,50.41
2022-12-01T04:49:56.933Z,50.47
2022-12-01T04:51:01.148Z,50.49
2022-12-01T04:52:05.260Z,50.5
2022-12-01T04:53:09.437Z,50.53
2022-12-01T04:54:13.537Z,50.54
2022-12-01T04:55:17.654Z,50.56
2022-12-01T04:56:21.767Z,50.61
2022-12-01T04:57:25.868Z,50.58
2022-12-01T04:58:29.957Z,50.57
2022-12-01T04:59:34.050Z,50.57
2022-12-01T05:00:38.397Z,50.62
2022-12-01T05:01:42.726Z,50.59
2022-12-01T05:02:46.901Z,50.61
2022-12-01T05:03:51.005Z,50.62
2022-12-01T05:04:55.110Z,50.6
2022-12-01T05:05:59.253Z,50.66
2022-12-01T05:07:03.349Z,50.54
2022-12-01T05:08:07.747Z,50.58
2022-12-01T05:09:18.837Z,50.67
2022-12-01T05:10:22.934Z,50.56
2022-12-01T05:11:27.051Z,50.62
2022-12-01T05:12:31.177Z,50.45
2022-12-01T05:13:35.282Z,50.46
2022-12-01T05:14:39.395Z,50.48
2022-12-01T05:15:43.508Z,50.53
2022-12-01T05:16:47.904Z,50.49
2022-12-01T05:17:52.097Z,50.51
2022-12-01T05:18:56.377Z,50.52
2022-12-01T05:20:00.513Z,50.57
2022-12-01T05:21:04.623Z,50.53
2022-12-01T05:22:08.738Z,50.44
2022-12-01T05:23:18.602Z,50.62
2022-12-01T05:24:22.681Z,50.56
2022-12-01T05:25:26.793Z,50.58
2022-12-01T05:26:30.878Z,50.6
2022-12-01T05:27:35.001Z,50.65
2022-12-01T05:28:39.102Z,50.72
2022-12-01T05:29:43.197Z,50.71
2022-12-01T05:30:47.302Z,50.69
2022-12-01T05:31:51.606Z,50.69
2022-12-01T05:32:55.777Z,50.69
2022-12-01T05:33:59.888Z,50.74
2022-12-01T05:35:03.999Z,50.72
2022-12-01T05:36:08.118Z,50.79
2022-12-01T05:37:12.228Z,50.81
2022-12-01T05:38:16.350Z,50.8
2022-12-01T05:39:20.493Z,50.74
2022-12-01T05:40:24.606Z,50.76
2022-12-01T05:41:28.702Z,50.77
2022-12-01T05:42:32.807Z,50.77
2022-12-01T05:43:36.936Z,50.82
2022-12-01T05:44:41.042Z,50.8
2022-12-01T05:45:45.269Z,50.77
2022-12-01T05:46:49.435Z,50.77
2022-12-01T05:47:53.530Z,50.8
2022-12-01T05:48:57.716Z,50.78
2022-12-01T05:50:07.391Z,50.86
2022-12-01T05:51:11.485Z,50.79
2022-12-01T05:52:15.647Z,50.72
2022-12-01T05:53:19.736Z,50.7
2022-12-01T05:54:23.842Z,50.7
2022-12-01T05:55:27.940Z,50.83
2022-12-01T05:56:32.053Z,50.75
2022-12-01T05:57:36.144Z,50.69
2022-12-01T05:58:40.229Z,50.69
2022-12-01T05:59:44.375Z,50.8
2022-12-01T06:00:48.487Z,50.71
2022-12-01T06:01:52.804Z,50.63
2022-12-01T06:02:56.916Z,50.8
2022-12-01T06:04:01.357Z,50.91
2022-12-01T06:05:05.506Z,50.81
2022-12-01T06:06:09.626Z,50.76
2022-12-01T06:07:13.734Z,50.71
2022-12-01T06:08:17.829Z,50.76
2022-12-01T06:09:21.952Z,50.75
2022-12-01T06:10:26.082Z,50.9
2022-12-01T06:11:30.158Z,50.82
2022-12-01T06:12:34.278Z,50.99
2022-12-01T06:13:38.386Z,50.86
2022-12-01T06:14:42.508Z,50.81
2022-12-01T06:15:46.683Z,51.23
2022-12-01T06:16:51.020Z,50.99
2022-12-01T06:17:55.192Z,50.86
2022-12-01T06:18:59.305Z,50.95
2022-12-01T06:20:03.396Z,50.89
2022-12-01T06:21:07.536Z,51.14
2022-12-01T06:22:11.634Z,51.1
2022-12-01T06:23:15.735Z,51.13
2022-12-01T06:24:19.850Z,51
2022-12-01T06:25:23.972Z,51.08
2022-12-01T06:26:28.117Z,50.84
2022-12-01T06:27:32.237Z,50.97
2022-12-01T06:28:36.338Z,50.97
2022-12-01T06:29:44.089Z,50.93
2022-12-01T06:30:48.208Z,50.94
2022-12-01T06:31:52.555Z,50.87
2022-12-01T06:32:56.685Z,50.99
2022-12-01T06:34:00.802Z,51.24
2022-12-01T06:35:04.961Z,51.14
2022-12-01T06:36:09.075Z,51.02
2022-12-01T06:37:13.217Z,51.23
2022-12-01T06:38:17.321Z,51.12
2022-12-01T06:39:21.428Z,51.13
2022-12-01T06:40:25.528Z,51.12
2022-12-01T06:41:29.742Z,51.08
2022-12-01T06:42:33.850Z,51.21
2022-12-01T06:43:37.960Z,51.12
2022-12-01T06:44:42.053Z,51.12
2022-12-01T06:45:46.555Z,51.38
2022-12-01T06:46:50.676Z,51.21
2022-12-01T06:47:54.789Z,51.33
2022-12-01T06:48:58.872Z,51.38
2022-12-01T06:50:02.972Z,51.33
2022-12-01T06:51:07.063Z,51.23
2022-12-01T06:52:11.160Z,51.21
2022-12-01T06:53:15.275Z,51.22
2022-12-01T06:54:19.386Z,51.18
2022-12-01T06:55:23.827Z,51.31
2022-12-01T06:56:28.705Z,51.25
2022-12-01T06:57:33.413Z,51.32
2022-12-01T06:58:38.498Z,51.23
2022-12-01T06:59:43.854Z,51.3
2022-12-01T07:00:53.987Z,51.52
2022-12-01T07:01:58.694Z,51.4
2022-12-01T07:03:02.967Z,51.49
2022-12-01T07:04:07.081Z,51.41
2022-12-01T07:05:11.210Z,51.45
2022-12-01T07:06:15.288Z,51.37
2022-12-01T07:07:19.534Z,51.41
2022-12-01T07:08:23.699Z,51.33
2022-12-01T07:09:27.856Z,51.39
2022-12-01T07:10:31.989Z,51.33
2022-12-01T07:11:36.092Z,51.44
2022-12-01T07:12:40.190Z,51.67
2022-12-01T07:13:44.312Z,51.5
2022-12-01T07:14:48.405Z,51.55
2022-12-01T07:15:52.504Z,51.56
2022-12-01T07:16:56.910Z,51.46
2022-12-01T07:18:01.094Z,51.55
2022-12-01T07:19:05.234Z,51.59
2022-12-01T07:20:09.326Z,51.57
2022-12-01T07:21:13.430Z,51.58
2022-12-01T07:22:17.525Z,51.56
2022-12-01T07:23:21.640Z,51.48
2022-12-01T07:24:25.800Z,51.48
2022-12-01T07:25:29.925Z,51.49
2022-12-01T07:26:34.047Z,51.65
2022-12-01T07:27:38.190Z,51.47
2022-12-01T07:28:42.305Z,51.49
2022-12-01T07:29:46.669Z,51.49
2022-12-01T07:30:51.237Z,51.53
2022-12-01T07:31:55.375Z,51.52
2022-12-01T07:32:59.495Z,51.5
2022-12-01T07:34:03.778Z,51.52
2022-12-01T07:35:07.895Z,51.53
2022-12-01T07:36:12.202Z,51.52
2022-12-01T07:37:16.346Z,51.49
2022-12-01T07:38:24.133Z,51.62
2022-12-01T07:39:28.256Z,51.49
2022-12-01T07:40:32.507Z,51.54
2022-12-01T07:41:36.628Z,51.75
2022-12-01T07:42:40.754Z,51.8
2022-12-01T07:43:44.853Z,51.6
2022-12-01T07:44:48.945Z,51.5
2022-12-01T07:45:53.208Z,51.53
2022-12-01T07:46:57.313Z,51.51
2022-12-01T07:48:01.429Z,51.57
2022-12-01T07:49:05.555Z,51.52
2022-12-01T07:50:09.762Z,51.84
2022-12-01T07:51:13.879Z,51.74
2022-12-01T07:52:17.989Z,51.87
2022-12-01T07:53:22.105Z,51.64
2022-12-01T07:54:26.240Z,51.58
2022-12-01T07:55:30.366Z,51.66
2022-12-01T07:56:34.527Z,51.62
2022-12-01T07:57:38.720Z,51.88
2022-12-01T07:58:42.849Z,51.65
2022-12-01T07:59:47.419Z,51.71
2022-12-01T08:00:51.698Z,51.67
2022-12-01T08:01:56.048Z,51.72
2022-12-01T08:03:00.495Z,51.77
2022-12-01T08:04:04.643Z,51.79
2022-12-01T08:05:08.753Z,51.85
2022-12-01T08:06:12.884Z,51.84
2022-12-01T08:07:17.016Z,51.76
2022-12-01T08:08:21.314Z,51.8
2022-12-01T08:09:25.445Z,51.82
2022-12-01T08:10:29.631Z,51.82
2022-12-01T08:11:33.839Z,51.85
2022-12-01T08:12:37.952Z,51.77
2022-12-01T08:13:42.046Z,51.83
2022-12-01T08:14:46.161Z,51.88
2022-12-01T08:15:50.446Z,51.92
2022-12-01T08:16:54.593Z,51.84
2022-12-01T08:17:58.705Z,51.92
2022-12-01T08:19:02.829Z,51.86
2022-12-01T08:20:06.920Z,51.88
2022-12-01T08:21:11.026Z,51.87
2022-12-01T08:22:15.366Z,51.88
2022-12-01T08:23:19.630Z,51.8
2022-12-01T08:24:23.800Z,51.87
2022-12-01T08:25:27.896Z,51.93
2022-12-01T08:26:31.997Z,51.99
2022-12-01T08:27:36.103Z,52.31
